Time;durP1;ratioP1;P1;durP2;ratioP2;P2;SDS_P1;SDS_P2;PMS_P1;PMS_P2;Temp;Humidity;BMP_temperature;BMP_pressure;BME280_temperature;BME280_humidity;BME280_pressure;Samples;Min_cycle;Max_cycle;Signal;HPM_P1;HPM_P2
2022/01/16 00:06:24;;;;;;;34.70;13.55;;;0.90;99.90;;;;;;5089311;28;20062;-46
2022/01/16 00:08:50;;;;;;;31.33;14.38;;;1.00;99.90;;;;;;5086882;28;20016;-46
2022/01/16 00:11:15;;;;;;;28.38;13.95;;;1.00;99.90;;;;;;5087731;28;20023;-45
2022/01/16 00:13:41;;;;;;;35.60;14.32;;;1.00;99.90;;;;;;5088731;28;20039;-45
2022/01/16 00:16:07;;;;;;;30.48;15.05;;;1.00;99.90;;;;;;5088737;28;20257;-46
2022/01/16 00:18:40;;;;;;;29.35;15.20;;;1.00;99.90;;;;;;5088177;28;20469;-46
2022/01/16 00:21:06;;;;;;;30.55;14.77;;;1.00;99.90;;;;;;5083903;28;20024;-46
2022/01/16 00:23:32;;;;;;;34.70;16.95;;;1.00;99.90;;;;;;5082077;28;20065;-46
2022/01/16 00:25:57;;;;;;;44.38;16.92;;;1.00;99.90;;;;;;5088643;28;20032;-46
2022/01/16 00:28:24;;;;;;;33.55;16.58;;;0.90;99.90;;;;;;5088308;28;20024;-49
2022/01/16 00:30:50;;;;;;;37.92;17.20;;;0.80;99.90;;;;;;5088899;28;20430;-46
2022/01/16 00:33:17;;;;;;;44.78;17.65;;;0.80;99.90;;;;;;5088536;28;20095;-49
2022/01/16 00:35:43;;;;;;;39.35;17.20;;;0.70;99.90;;;;;;5088645;28;20032;-46
2022/01/16 00:38:08;;;;;;;36.22;18.13;;;0.70;99.90;;;;;;5087973;28;20039;-47
2022/01/16 00:40:34;;;;;;;29.27;15.73;;;0.80;99.90;;;;;;5088478;28;20020;-46
2022/01/16 00:43:01;;;;;;;38.05;16.05;;;0.80;99.90;;;;;;5088650;28;20035;-47
2022/01/16 00:45:29;;;;;;;33.50;16.08;;;0.90;99.90;;;;;;5088475;28;20040;-47
2022/01/16 00:47:55;;;;;;;34.35;15.63;;;0.80;99.90;;;;;;5087944;28;20024;-45
2022/01/16 00:50:20;;;;;;;32.08;15.20;;;0.80;99.90;;;;;;5087065;28;20515;-46
2022/01/16 00:52:46;;;;;;;36.55;16.23;;;0.80;99.90;;;;;;5085234;28;20032;-46
2022/01/16 00:55:11;;;;;;;31.73;14.57;;;0.80;99.90;;;;;;5080133;28;20117;-46
2022/01/16 00:57:37;;;;;;;34.15;15.60;;;0.80;99.90;;;;;;5090614;28;20060;-46
2022/01/16 01:00:05;;;;;;;27.23;13.63;;;0.80;99.90;;;;;;5092570;28;20099;-45
2022/01/16 01:02:30;;;;;;;32.35;15.35;;;0.80;99.90;;;;;;5092416;28;20081;-46
2022/01/16 01:04:56;;;;;;;29.40;14.68;;;0.90;99.90;;;;;;5092494;28;20381;-45
2022/01/16 01:07:21;;;;;;;33.25;15.30;;;0.90;99.90;;;;;;5091598;28;20028;-48
2022/01/16 01:09:47;;;;;;;29.02;15.27;;;0.90;99.90;;;;;;5091995;28;20020;-45
2022/01/16 01:12:24;;;;;;;31.50;15.45;;;0.90;99.90;;;;;;5090923;28;20023;-47
2022/01/16 01:15:05;;;;;;;27.27;13.88;;;0.80;99.90;;;;;;5092162;28;20027;-45
2022/01/16 01:17:35;;;;;;;37.83;15.63;;;0.80;99.90;;;;;;5090404;28;20024;-47
2022/01/16 01:20:00;;;;;;;34.72;14.65;;;0.90;99.90;;;;;;5091907;28;20024;-47
2022/01/16 01:22:26;;;;;;;27.02;14.75;;;0.90;99.90;;;;;;5092022;28;20493;-45
2022/01/16 01:24:51;;;;;;;34.80;15.43;;;0.90;99.90;;;;;;5081966;28;20581;-45
2022/01/16 01:27:23;;;;;;;29.05;13.88;;;0.90;99.90;;;;;;5091350;28;20039;-46
2022/01/16 01:29:58;;;;;;;27.25;13.65;;;0.90;99.90;;;;;;5092014;28;20219;-46
2022/01/16 01:32:24;;;;;;;29.13;14.60;;;1.00;99.90;;;;;;5092181;28;20036;-46
2022/01/16 01:34:49;;;;;;;30.02;15.77;;;1.00;99.90;;;;;;5090471;28;20405;-46
2022/01/16 01:37:15;;;;;;;27.58;14.95;;;1.00;99.90;;;;;;5091116;28;20028;-46
2022/01/16 01:39:41;;;;;;;34.22;14.30;;;1.00;99.90;;;;;;5090255;28;20567;-46
2022/01/16 01:42:10;;;;;;;30.67;14.65;;;1.00;99.90;;;;;;5091658;28;20112;-46
2022/01/16 01:52:51;;;;;;;33.92;15.10;;;0.80;99.90;;;;;;5090164;28;20062;-47
2022/01/16 01:55:18;;;;;;;30.30;15.10;;;0.90;99.90;;;;;;5079858;28;20105;-47
2022/01/16 01:57:43;;;;;;;33.13;16.55;;;0.90;99.90;;;;;;5070445;28;20025;-46
2022/01/16 02:00:09;;;;;;;32.78;15.60;;;0.90;99.90;;;;;;5071248;28;20039;-47
2022/01/16 02:02:49;;;;;;;29.23;14.52;;;0.90;99.90;;;;;;5071097;28;20035;-46
2022/01/16 02:05:15;;;;;;;29.05;14.52;;;0.80;99.90;;;;;;5070982;28;20524;-46
2022/01/16 02:07:40;;;;;;;38.25;17.65;;;0.90;99.90;;;;;;5069026;28;20029;-45
2022/01/16 02:10:06;;;;;;;29.48;14.50;;;0.80;99.90;;;;;;5070645;28;20022;-46
2022/01/16 02:12:34;;;;;;;32.53;16.15;;;0.80;99.90;;;;;;5071028;28;20025;-46
2022/01/16 02:15:17;;;;;;;32.05;15.00;;;0.80;99.90;;;;;;5070772;28;20482;-46
2022/01/16 02:29:00;;;;;;;30.55;14.85;;;0.90;99.90;;;;;;5090469;28;20050;-46
2022/01/16 02:31:26;;;;;;;31.67;13.82;;;0.90;99.90;;;;;;5089393;28;20115;-46
2022/01/16 02:36:46;;;;;;;29.10;15.20;;;1.00;99.90;;;;;;5090898;28;20092;-47
2022/01/16 02:39:13;;;;;;;32.47;15.60;;;1.00;99.90;;;;;;5090051;28;20020;-48
2022/01/16 02:41:40;;;;;;;39.60;16.02;;;0.90;99.90;;;;;;5089132;28;20267;-46
2022/01/16 02:46:45;;;;;;;30.65;13.73;;;0.90;99.90;;;;;;5090665;28;20035;-46
2022/01/16 02:49:29;;;;;;;27.63;14.60;;;0.90;99.90;;;;;;5089620;28;20177;-45
2022/01/16 02:52:00;;;;;;;29.92;15.10;;;0.90;99.90;;;;;;5090339;28;20024;-47
2022/01/16 02:54:27;;;;;;;30.30;14.90;;;0.90;99.90;;;;;;5084018;28;20017;-47
2022/01/16 02:56:53;;;;;;;28.80;13.88;;;0.90;99.90;;;;;;5086791;28;20020;-46
2022/01/16 02:59:20;;;;;;;30.58;14.95;;;0.80;99.90;;;;;;5090075;28;20380;-46
2022/01/16 03:01:46;;;;;;;25.65;14.05;;;0.80;99.90;;;;;;5090152;28;20019;-49
2022/01/16 03:04:11;;;;;;;24.80;14.23;;;0.80;99.90;;;;;;5089994;28;20018;-46
2022/01/16 03:06:37;;;;;;;25.60;13.00;;;0.80;99.90;;;;;;5090012;28;20042;-49
2022/01/16 03:09:07;;;;;;;27.20;14.93;;;0.80;99.90;;;;;;5088973;28;20035;-46
2022/01/16 03:11:35;;;;;;;25.38;14.23;;;0.80;99.90;;;;;;5090067;28;20027;-47
2022/01/16 03:14:08;;;;;;;28.05;13.70;;;0.80;99.90;;;;;;5086705;28;20380;-46
2022/01/16 03:16:34;;;;;;;31.05;15.02;;;0.80;99.90;;;;;;5086642;28;20024;-46
2022/01/16 03:21:58;;;;;;;32.60;15.25;;;0.80;99.90;;;;;;5079243;28;20203;-46
2022/01/16 03:24:24;;;;;;;25.08;12.93;;;0.80;99.90;;;;;;5079562;28;20028;-46
2022/01/16 03:26:54;;;;;;;26.08;13.55;;;0.70;99.90;;;;;;5085834;28;20016;-49
2022/01/16 03:29:20;;;;;;;30.02;14.63;;;0.70;99.90;;;;;;5088913;28;20024;-47
2022/01/16 03:31:46;;;;;;;32.22;15.80;;;0.70;99.90;;;;;;5089697;28;20119;-47
2022/01/16 03:34:11;;;;;;;28.05;14.90;;;0.80;99.90;;;;;;5089674;28;20024;-46
2022/01/16 03:36:36;;;;;;;31.52;16.00;;;0.70;99.90;;;;;;5089687;28;20039;-45
2022/01/16 03:39:03;;;;;;;28.23;15.45;;;0.70;99.90;;;;;;5088592;28;20478;-46
2022/01/16 03:41:30;;;;;;;27.63;13.85;;;0.70;99.90;;;;;;5089228;28;20063;-47
2022/01/16 03:44:01;;;;;;;32.50;14.75;;;0.70;99.90;;;;;;5089150;28;20031;-45
2022/01/16 03:46:29;;;;;;;26.88;14.18;;;0.70;99.90;;;;;;5089402;28;20020;-46
2022/01/16 03:48:55;;;;;;;27.15;13.82;;;0.70;99.90;;;;;;5088463;28;20094;-46
2022/01/16 03:51:21;;;;;;;30.92;14.43;;;0.70;99.90;;;;;;5089142;28;20024;-47
2022/01/16 03:53:46;;;;;;;27.30;13.88;;;0.60;99.90;;;;;;5086342;28;20024;-47
2022/01/16 03:56:12;;;;;;;27.98;14.20;;;0.60;99.90;;;;;;5080625;28;20530;-46
2022/01/16 03:58:37;;;;;;;27.25;14.80;;;0.60;99.90;;;;;;5088463;28;20103;-46
2022/01/16 04:01:03;;;;;;;22.75;12.68;;;0.60;99.90;;;;;;5089033;28;20024;-46
2022/01/16 04:03:28;;;;;;;29.35;15.27;;;0.60;99.90;;;;;;5089173;28;20050;-46
2022/01/16 04:05:54;;;;;;;28.52;15.48;;;0.60;99.90;;;;;;5089053;28;20027;-46
2022/01/16 04:08:19;;;;;;;28.60;13.43;;;0.60;99.90;;;;;;5088010;28;20186;-46
2022/01/16 04:10:45;;;;;;;28.58;14.77;;;0.60;99.90;;;;;;5087684;28;20420;-46
2022/01/16 04:13:12;;;;;;;28.40;13.82;;;0.50;99.90;;;;;;5089119;28;20097;-47
2022/01/16 04:15:37;;;;;;;24.73;13.40;;;0.50;99.90;;;;;;5088863;28;20020;-46
2022/01/16 04:18:05;;;;;;;29.08;15.40;;;0.50;99.90;;;;;;5088325;28;20028;-46
2022/01/16 04:20:32;;;;;;;30.08;14.30;;;0.50;99.90;;;;;;5088677;28;20035;-46
2022/01/16 04:22:58;;;;;;;27.38;13.50;;;0.50;99.90;;;;;;5087426;28;20077;-48
2022/01/16 04:25:23;;;;;;;29.25;14.00;;;0.40;99.90;;;;;;5079930;28;20452;-45
2022/01/16 04:27:49;;;;;;;28.98;15.23;;;0.40;99.90;;;;;;5087964;28;20028;-46
2022/01/16 04:30:15;;;;;;;28.48;13.90;;;0.40;99.90;;;;;;5087753;28;20074;-46
2022/01/16 04:32:40;;;;;;;27.42;14.43;;;0.40;99.90;;;;;;5088642;28;20032;-47
2022/01/16 04:35:06;;;;;;;26.92;13.48;;;0.30;99.90;;;;;;5088642;28;20284;-46
2022/01/16 04:37:32;;;;;;;29.10;13.73;;;0.30;99.90;;;;;;5088137;28;20032;-46
2022/01/16 04:40:02;;;;;;;29.40;15.73;;;0.30;99.90;;;;;;5088326;28;20408;-46
2022/01/16 04:45:13;;;;;;;30.23;15.40;;;0.40;99.90;;;;;;5088742;28;20444;-46
2022/01/16 04:47:39;;;;;;;25.95;14.20;;;0.40;99.90;;;;;;5086686;28;20067;-45
2022/01/16 04:50:07;;;;;;;31.75;15.50;;;0.40;99.90;;;;;;5088479;28;20068;-45
2022/01/16 04:52:32;;;;;;;34.30;16.00;;;0.40;99.90;;;;;;5088465;28;20446;-45
2022/01/16 04:54:57;;;;;;;26.30;14.13;;;0.30;99.90;;;;;;5078333;28;20058;-45
2022/01/16 04:57:23;;;;;;;28.15;14.88;;;0.30;99.90;;;;;;5087896;28;20028;-46
2022/01/16 04:59:48;;;;;;;26.67;14.13;;;0.30;99.90;;;;;;5088662;28;20637;-46
2022/01/16 05:02:14;;;;;;;28.38;16.00;;;0.30;99.90;;;;;;5088249;28;20058;-45
2022/01/16 05:04:39;;;;;;;35.90;16.90;;;0.30;99.90;;;;;;5088393;28;20028;-45
2022/01/16 05:07:05;;;;;;;38.55;17.42;;;0.30;99.90;;;;;;5088647;28;20026;-46
2022/01/16 05:09:31;;;;;;;38.92;18.48;;;0.30;99.90;;;;;;5087437;28;20020;-46
2022/01/16 05:11:58;;;;;;;32.05;15.73;;;0.40;99.90;;;;;;5088426;28;20270;-45
2022/01/16 05:17:08;;;;;;;34.40;17.13;;;0.50;99.90;;;;;;5088523;28;20093;-46
2022/01/16 05:19:33;;;;;;;39.03;19.00;;;0.60;99.90;;;;;;5087416;28;20032;-45
2022/01/16 05:21:59;;;;;;;37.38;20.48;;;0.70;99.90;;;;;;5086835;28;20032;-46
2022/01/16 05:24:31;;;;;;;41.40;19.05;;;0.70;99.90;;;;;;5080549;28;20463;-46
2022/01/16 05:26:56;;;;;;;39.80;19.73;;;0.80;99.90;;;;;;5084026;28;20564;-46
2022/01/16 05:29:21;;;;;;;42.15;20.75;;;1.00;99.90;;;;;;5087482;28;20136;-46
2022/01/16 05:31:47;;;;;;;40.85;21.73;;;1.00;99.90;;;;;;5088184;28;20066;-45
2022/01/16 05:34:15;;;;;;;44.92;22.02;;;1.10;99.90;;;;;;5087990;28;20024;-46
2022/01/16 05:36:41;;;;;;;41.40;20.75;;;1.20;99.90;;;;;;5086809;28;20032;-45
2022/01/16 05:39:06;;;;;;;41.55;21.88;;;1.30;99.90;;;;;;5087133;28;20481;-45
2022/01/16 05:41:32;;;;;;;42.00;21.83;;;1.30;99.90;;;;;;5089662;28;20031;-45
2022/01/16 05:43:57;;;;;;;44.08;21.60;;;1.40;99.90;;;;;;5091825;28;20036;-46
2022/01/16 05:46:23;;;;;;;46.25;20.70;;;1.40;99.90;;;;;;5091551;28;20024;-45
2022/01/16 05:48:50;;;;;;;40.50;21.40;;;1.50;99.90;;;;;;5090789;28;20036;-45
2022/01/16 05:51:16;;;;;;;40.95;20.33;;;1.60;99.90;;;;;;5091505;28;20024;-45
2022/01/16 05:53:44;;;;;;;39.08;18.95;;;1.60;99.90;;;;;;5090053;28;20034;-46
2022/01/16 05:56:10;;;;;;;42.33;19.55;;;1.60;99.90;;;;;;5083107;28;20504;-46
2022/01/16 05:58:36;;;;;;;40.45;19.83;;;1.70;99.90;;;;;;5091067;28;20046;-45
2022/01/16 06:01:01;;;;;;;43.00;19.73;;;1.70;99.90;;;;;;5086492;28;20024;-46
2022/01/16 06:03:26;;;;;;;42.60;19.30;;;1.80;99.90;;;;;;5050950;28;20045;-46
2022/01/16 06:05:52;;;;;;;38.38;19.10;;;1.80;99.90;;;;;;5050997;28;20520;-45
2022/01/16 06:08:17;;;;;;;37.22;18.10;;;1.90;99.90;;;;;;5050501;28;20248;-47
2022/01/16 06:10:43;;;;;;;34.95;17.15;;;1.90;99.90;;;;;;5050614;28;20024;-46
2022/01/16 06:13:09;;;;;;;34.83;17.70;;;1.90;99.90;;;;;;5066360;28;20028;-47
2022/01/16 06:15:35;;;;;;;36.92;19.58;;;1.90;99.90;;;;;;5050856;28;20025;-46
2022/01/16 06:18:01;;;;;;;36.40;18.02;;;1.90;99.90;;;;;;5050047;28;20536;-46
2022/01/16 06:20:27;;;;;;;32.88;16.25;;;1.90;99.90;;;;;;5050636;28;20220;-46
2022/01/16 06:22:55;;;;;;;31.48;16.13;;;2.00;99.90;;;;;;5052137;28;20032;-45
2022/01/16 06:25:23;;;;;;;36.90;16.92;;;2.00;99.90;;;;;;5082082;28;20020;-46
2022/01/16 06:27:49;;;;;;;35.33;16.45;;;2.00;99.90;;;;;;5090569;28;20028;-47
2022/01/16 06:30:15;;;;;;;32.70;15.68;;;2.10;99.90;;;;;;5091288;28;20024;-49
2022/01/16 06:32:41;;;;;;;30.05;15.13;;;2.10;99.90;;;;;;5090683;28;20042;-46
2022/01/16 06:35:07;;;;;;;27.10;13.77;;;2.10;99.90;;;;;;5076219;28;20473;-48
2022/01/16 06:37:33;;;;;;;31.20;14.30;;;2.10;99.90;;;;;;5060029;28;20701;-46
2022/01/16 06:39:59;;;;;;;26.30;13.45;;;2.10;99.90;;;;;;5058939;28;20032;-46
2022/01/16 06:42:24;;;;;;;27.65;13.00;;;2.10;99.90;;;;;;5062104;28;20393;-46
2022/01/16 06:44:50;;;;;;;25.98;12.43;;;2.20;99.90;;;;;;5058565;28;20032;-46
2022/01/16 06:47:16;;;;;;;24.23;11.73;;;2.20;99.90;;;;;;5060081;28;20021;-47
2022/01/16 06:49:42;;;;;;;24.95;12.32;;;2.20;99.90;;;;;;5060038;28;20478;-46
2022/01/16 06:52:07;;;;;;;27.70;12.82;;;2.20;99.90;;;;;;5060197;28;20435;-47
2022/01/16 06:54:33;;;;;;;25.30;12.93;;;2.20;99.90;;;;;;5068205;28;20020;-47
2022/01/16 06:56:59;;;;;;;19.92;10.50;;;2.20;99.90;;;;;;5070015;28;20429;-45
2022/01/16 06:59:24;;;;;;;20.95;11.10;;;2.20;99.90;;;;;;5069393;28;20504;-46
2022/01/16 07:01:50;;;;;;;19.15;10.63;;;2.30;99.90;;;;;;5057859;28;20497;-46
2022/01/16 07:04:15;;;;;;;21.83;11.68;;;2.30;99.90;;;;;;5060225;28;20032;-47
2022/01/16 07:06:41;;;;;;;23.40;11.55;;;2.40;99.90;;;;;;5059471;28;20413;-47
2022/01/16 07:09:06;;;;;;;19.85;10.13;;;2.40;99.90;;;;;;5059263;28;20097;-47
2022/01/16 07:11:32;;;;;;;18.67;10.20;;;2.40;99.90;;;;;;5059177;28;20031;-46
2022/01/16 07:13:57;;;;;;;20.85;10.93;;;2.40;99.90;;;;;;5061723;28;20052;-45
2022/01/16 07:16:23;;;;;;;20.77;10.95;;;2.40;99.90;;;;;;5058651;28;20474;-45
2022/01/16 07:18:48;;;;;;;17.35;10.68;;;2.40;99.90;;;;;;5069141;28;20054;-47
2022/01/16 07:21:15;;;;;;;24.13;11.73;;;2.40;99.90;;;;;;5069464;28;20028;-46
2022/01/16 07:23:45;;;;;;;20.20;11.77;;;2.40;99.90;;;;;;5076036;28;20383;-45
2022/01/16 07:26:11;;;;;;;;;;;2.40;99.90;;;;;;5081675;28;20032;-46
2022/01/16 07:28:37;;;;;;;19.63;10.30;;;2.40;99.90;;;;;;5063264;28;19909;-48
2022/01/16 07:31:03;;;;;;;17.08;10.65;;;2.50;99.90;;;;;;5057277;28;20466;-47
2022/01/16 07:33:29;;;;;;;21.35;11.88;;;2.50;99.90;;;;;;5059979;28;20032;-48
2022/01/16 07:35:55;;;;;;;19.45;11.35;;;2.50;99.90;;;;;;5066566;28;20028;-47
2022/01/16 07:38:20;;;;;;;19.90;11.20;;;2.50;99.90;;;;;;5068633;28;20136;-47
2022/01/16 07:40:46;;;;;;;22.50;12.13;;;2.50;99.90;;;;;;5068948;28;20040;-47
2022/01/16 07:43:13;;;;;;;21.75;12.23;;;2.50;99.90;;;;;;5069234;28;20040;-46
2022/01/16 07:45:38;;;;;;;20.48;11.98;;;2.50;99.90;;;;;;5069202;28;20016;-47
2022/01/16 07:48:08;;;;;;;21.92;12.27;;;2.60;99.90;;;;;;5068499;28;20016;-47
2022/01/16 07:50:36;;;;;;;22.40;12.70;;;2.60;99.90;;;;;;5069049;28;20032;-47
2022/01/16 07:53:01;;;;;;;20.23;12.50;;;2.70;99.90;;;;;;5070162;28;20051;-48
2022/01/16 07:55:27;;;;;;;18.92;11.52;;;2.60;99.90;;;;;;5078842;28;20431;-46
2022/01/16 07:57:54;;;;;;;22.90;12.73;;;2.60;99.90;;;;;;5088588;28;20338;-46
2022/01/16 08:00:20;;;;;;;25.73;14.40;;;2.60;99.90;;;;;;5089615;28;20032;-47
2022/01/16 08:02:47;;;;;;;25.02;14.82;;;2.60;99.90;;;;;;5089169;28;20028;-46
2022/01/16 08:05:12;;;;;;;24.50;14.65;;;2.60;99.90;;;;;;5088984;28;20032;-46
2022/01/16 08:07:38;;;;;;;23.55;13.68;;;2.60;99.90;;;;;;5088509;28;20028;-47
2022/01/16 08:10:04;;;;;;;23.55;14.02;;;2.60;99.90;;;;;;5088615;28;20474;-46
2022/01/16 08:12:29;;;;;;;26.23;14.32;;;2.60;99.90;;;;;;5089292;28;20471;-46
2022/01/16 08:14:55;;;;;;;23.52;13.77;;;2.60;99.90;;;;;;5088792;28;20021;-46
2022/01/16 08:17:21;;;;;;;24.63;15.00;;;2.60;99.90;;;;;;5088198;28;20020;-46
2022/01/16 08:19:46;;;;;;;23.88;13.95;;;2.60;99.90;;;;;;5088784;28;20497;-46
2022/01/16 08:22:11;;;;;;;26.55;15.25;;;2.70;99.90;;;;;;5088974;28;20039;-46
2022/01/16 08:24:38;;;;;;;28.02;15.15;;;2.80;99.90;;;;;;5080917;28;20178;-46
2022/01/16 08:27:04;;;;;;;25.33;14.80;;;2.80;99.90;;;;;;5086932;28;20078;-45
2022/01/16 08:29:29;;;;;;;26.95;15.45;;;2.70;99.90;;;;;;5088077;28;20024;-46
2022/01/16 08:31:55;;;;;;;26.77;14.85;;;2.70;99.90;;;;;;5088675;28;20032;-46
2022/01/16 08:34:20;;;;;;;25.40;14.50;;;2.70;99.90;;;;;;5088737;28;20523;-46
2022/01/16 08:36:46;;;;;;;27.00;16.42;;;2.80;99.90;;;;;;5088711;28;20036;-45
2022/01/16 08:39:11;;;;;;;24.90;15.05;;;2.70;99.90;;;;;;5086476;28;20032;-45
2022/01/16 08:41:37;;;;;;;28.88;15.32;;;2.70;99.90;;;;;;5088642;28;20052;-45
2022/01/16 08:44:05;;;;;;;29.98;16.02;;;2.70;99.90;;;;;;5088462;28;20077;-45
2022/01/16 08:46:30;;;;;;;28.20;15.02;;;2.80;99.90;;;;;;5088618;28;20024;-47
2022/01/16 08:48:56;;;;;;;30.50;16.10;;;2.80;99.90;;;;;;5086474;28;20389;-45
2022/01/16 08:51:21;;;;;;;32.58;16.58;;;2.80;99.90;;;;;;5088751;28;20012;-45
2022/01/16 08:53:47;;;;;;;35.30;18.02;;;2.80;99.90;;;;;;5087281;28;20089;-46
2022/01/16 08:56:14;;;;;;;36.80;18.10;;;2.90;99.90;;;;;;5079501;28;20029;-45
2022/01/16 08:58:39;;;;;;;37.97;19.42;;;2.90;99.90;;;;;;5087778;28;20501;-46
2022/01/16 09:01:05;;;;;;;41.05;19.88;;;3.00;99.90;;;;;;5088484;28;20362;-46
2022/01/16 09:03:30;;;;;;;40.38;19.00;;;3.00;99.90;;;;;;5068211;28;20258;-46
2022/01/16 09:05:56;;;;;;;39.22;20.10;;;3.00;99.90;;;;;;5068342;28;20124;-45
2022/01/16 09:08:21;;;;;;;36.55;19.70;;;3.00;99.90;;;;;;5061355;28;20017;-47
2022/01/16 09:10:47;;;;;;;40.85;20.60;;;3.00;99.90;;;;;;5062502;28;20074;-46
2022/01/16 09:13:17;;;;;;;47.40;22.77;;;3.00;99.90;;;;;;5068018;28;20032;-46
2022/01/16 09:15:44;;;;;;;45.22;21.88;;;3.00;99.90;;;;;;5064590;28;20032;-45
2022/01/16 09:18:10;;;;;;;37.58;20.13;;;3.10;99.90;;;;;;5051506;28;20043;-46
2022/01/16 09:20:36;;;;;;;50.05;22.73;;;3.10;99.90;;;;;;5051807;28;20417;-46
2022/01/16 09:23:02;;;;;;;42.63;22.00;;;3.10;99.90;;;;;;5055467;28;20029;-46
2022/01/16 09:25:27;;;;;;;49.50;23.80;;;3.10;99.90;;;;;;5081874;28;20020;-45
2022/01/16 09:27:53;;;;;;;50.40;23.70;;;3.10;99.90;;;;;;5091480;28;20027;-48
2022/01/16 09:30:21;;;;;;;50.58;25.10;;;3.10;99.90;;;;;;5092290;28;20039;-47
2022/01/16 09:32:47;;;;;;;48.10;24.90;;;3.10;99.90;;;;;;5090687;28;20036;-46
2022/01/16 09:35:13;;;;;;;49.78;25.05;;;3.30;99.90;;;;;;5091849;28;20035;-46
2022/01/16 09:37:39;;;;;;;55.83;26.33;;;3.30;99.90;;;;;;5091494;28;20056;-47
2022/01/16 09:40:07;;;;;;;59.28;27.05;;;3.20;99.90;;;;;;5089863;28;20249;-45
2022/01/16 09:42:33;;;;;;;53.97;26.42;;;3.20;99.90;;;;;;5091603;28;20032;-44
2022/01/16 09:44:58;;;;;;;61.13;28.88;;;3.20;99.90;;;;;;5091704;28;20024;-46
2022/01/16 09:47:24;;;;;;;52.22;25.90;;;3.10;99.90;;;;;;5090837;28;20027;-46
2022/01/16 09:49:50;;;;;;;57.20;27.83;;;3.20;99.90;;;;;;5091341;28;20447;-47
2022/01/16 09:52:15;;;;;;;57.20;27.13;;;3.20;99.90;;;;;;5090494;28;20523;-46
2022/01/16 09:54:41;;;;;;;61.47;29.40;;;3.30;99.90;;;;;;5081202;28;20023;-46
2022/01/16 09:57:07;;;;;;;64.82;27.98;;;3.30;99.90;;;;;;5089781;28;20026;-45
2022/01/16 09:59:35;;;;;;;64.97;28.23;;;3.30;99.90;;;;;;5090910;28;20375;-46
2022/01/16 10:02:02;;;;;;;63.90;30.45;;;3.30;99.90;;;;;;5089961;28;20024;-45
2022/01/16 10:04:42;;;;;;;62.30;29.52;;;3.30;99.90;;;;;;5091543;28;20020;-45
2022/01/16 10:07:25;;;;;;;63.10;30.88;;;3.30;99.90;;;;;;5091277;28;20392;-46
2022/01/16 10:10:14;;;;;;;63.50;28.40;;;3.30;99.90;;;;;;5091350;28;20016;-46
2022/01/16 10:12:47;;;;;;;54.05;27.10;;;3.30;99.90;;;;;;5091324;28;20020;-47
2022/01/16 10:15:24;;;;;;;59.05;28.67;;;3.30;99.90;;;;;;5091324;28;20020;-47
2022/01/16 10:17:52;;;;;;;58.67;29.27;;;3.30;99.90;;;;;;5090444;28;20442;-45
2022/01/16 10:20:18;;;;;;;62.05;27.80;;;3.30;99.90;;;;;;5089435;28;20024;-46
2022/01/16 10:22:48;;;;;;;58.25;28.40;;;3.30;99.90;;;;;;5090767;28;20028;-45
2022/01/16 10:25:15;;;;;;;61.58;28.25;;;3.30;99.90;;;;;;5081607;28;20103;-48
2022/01/16 10:27:43;;;;;;;59.85;29.90;;;3.30;99.90;;;;;;5088894;28;20024;-45
2022/01/16 10:30:14;;;;;;;59.03;29.50;;;3.30;99.90;;;;;;5090740;28;20035;-45
2022/01/16 10:32:45;;;;;;;;;;;3.30;99.90;;;;;;5091218;28;20024;-46
2022/01/16 10:35:17;;;;;;;62.85;29.50;;;3.30;99.90;;;;;;5089470;28;19967;-46
2022/01/16 10:37:47;;;;;;;57.88;29.10;;;3.40;99.90;;;;;;5090160;28;20423;-46
2022/01/16 10:40:18;;;;;;;57.90;28.45;;;3.40;99.90;;;;;;5090437;28;20245;-46
2022/01/16 10:42:55;;;;;;;58.38;28.63;;;3.40;99.90;;;;;;5090737;28;20107;-46
2022/01/16 10:45:25;;;;;;;68.25;32.40;;;3.40;99.90;;;;;;5090619;28;20065;-45
2022/01/16 10:47:53;;;;;;;;;;;3.40;99.90;;;;;;5082735;28;20100;-47
2022/01/16 10:50:38;;;;;;;52.53;27.02;;;3.50;99.90;;;;;;5058789;28;19952;-48
2022/01/16 10:53:19;;;;;;;58.25;28.33;;;3.50;99.90;;;;;;5062146;28;20028;-46
2022/01/16 10:55:47;;;;;;;55.65;27.73;;;3.50;99.90;;;;;;5063347;28;20028;-45
2022/01/16 10:58:34;;;;;;;64.18;32.33;;;3.50;99.90;;;;;;5060546;28;20103;-46
2022/01/16 11:01:03;;;;;;;66.68;29.83;;;3.60;99.90;;;;;;5069728;28;20200;-46
2022/01/16 11:03:47;;;;;;;61.17;30.35;;;3.50;99.90;;;;;;5066858;28;20398;-45
2022/01/16 11:06:13;;;;;;;61.90;31.60;;;3.50;99.90;;;;;;5070013;28;20021;-44
2022/01/16 11:08:39;;;;;;;59.15;31.35;;;3.50;99.90;;;;;;5069172;28;20032;-46
2022/01/16 11:11:07;;;;;;;59.30;30.10;;;3.40;99.90;;;;;;5068123;28;20078;-45
2022/01/16 11:13:34;;;;;;;65.30;33.92;;;3.50;99.90;;;;;;5069808;28;20040;-45
2022/01/16 11:16:05;;;;;;;63.38;31.58;;;3.50;99.90;;;;;;5069568;28;20024;-45
2022/01/16 11:18:38;;;;;;;67.60;33.40;;;3.50;99.90;;;;;;5069024;28;20024;-45
2022/01/16 11:26:13;;;;;;;69.45;34.70;;;3.60;99.90;;;;;;5081105;28;20472;-45
2022/01/16 11:28:39;;;;;;;73.10;33.97;;;3.60;99.90;;;;;;5089185;28;20084;-45
2022/01/16 11:31:07;;;;;;;77.05;36.33;;;3.60;99.90;;;;;;5089900;28;20447;-50
2022/01/16 11:33:34;;;;;;;77.40;33.67;;;3.60;99.90;;;;;;5061166;28;20025;-45
2022/01/16 11:36:10;;;;;;;74.28;34.80;;;3.50;99.90;;;;;;5057795;28;20021;-46
2022/01/16 11:38:39;;;;;;;79.85;37.90;;;3.50;99.90;;;;;;5056935;28;20091;-45
2022/01/16 11:41:13;;;;;;;73.18;34.95;;;3.60;99.90;;;;;;5057883;28;20021;-46
2022/01/16 11:43:40;;;;;;;74.95;35.20;;;3.60;99.90;;;;;;5057688;28;20029;-45
2022/01/16 11:46:13;;;;;;;72.80;34.00;;;3.60;99.90;;;;;;5058933;28;20020;-45
2022/01/16 11:48:58;;;;;;;67.13;32.85;;;3.70;99.90;;;;;;5058748;28;20457;-45
2022/01/16 11:51:32;;;;;;;72.50;36.00;;;3.60;99.90;;;;;;5064538;28;20016;-45
2022/01/16 11:53:58;;;;;;;73.80;34.20;;;3.70;99.90;;;;;;5061144;28;20028;-46
2022/01/16 11:56:39;;;;;;;77.00;37.80;;;3.60;99.90;;;;;;5060318;28;20036;-46
2022/01/16 11:59:22;;;;;;;80.65;36.38;;;3.70;99.90;;;;;;5060198;28;20047;-45
2022/01/16 12:01:59;;;;;;;74.97;33.97;;;3.70;99.90;;;;;;5068682;28;20028;-48
2022/01/16 12:04:31;;;;;;;80.43;33.90;;;3.80;99.90;;;;;;5068580;28;20032;-45
2022/01/16 12:07:03;;;;;;;72.22;34.10;;;3.80;99.90;;;;;;5067286;28;20639;-46
2022/01/16 12:09:38;;;;;;;75.32;34.47;;;3.80;99.90;;;;;;5067993;28;20389;-46
2022/01/16 12:12:24;;;;;;;81.32;36.00;;;3.80;99.90;;;;;;5068638;28;20442;-45
2022/01/16 12:15:05;;;;;;;73.78;35.65;;;3.90;99.90;;;;;;5068441;28;20035;-44
2022/01/16 12:17:47;;;;;;;68.38;34.15;;;3.90;99.90;;;;;;5066484;28;20021;-45
2022/01/16 12:20:13;;;;;;;70.30;35.15;;;4.00;99.90;;;;;;5067283;28;20398;-48
2022/01/16 12:22:43;;;;;;;80.90;34.83;;;4.00;99.90;;;;;;5068401;28;20024;-47
2022/01/16 12:25:17;;;;;;;73.55;35.25;;;4.00;99.90;;;;;;5076205;28;20238;-47
2022/01/16 12:28:05;;;;;;;72.55;34.00;;;4.00;99.90;;;;;;5088297;28;20039;-45
2022/01/16 12:30:48;;;;;;;75.93;36.03;;;4.00;99.90;;;;;;5088373;28;20016;-45
2022/01/16 12:33:30;;;;;;;73.07;34.40;;;4.00;99.90;;;;;;5087045;28;20036;-45
2022/01/16 12:35:55;;;;;;;79.07;35.55;;;4.00;99.90;;;;;;5087210;28;20043;-46
2022/01/16 12:38:25;;;;;;;77.60;34.33;;;4.00;99.90;;;;;;5087774;28;20017;-45
2022/01/16 12:40:58;;;;;;;72.05;34.70;;;4.10;99.90;;;;;;5088141;28;20028;-46
2022/01/16 12:43:29;;;;;;;79.05;33.40;;;4.00;99.90;;;;;;5088201;28;20020;-47
2022/01/16 12:45:55;;;;;;;78.45;35.22;;;4.00;99.90;;;;;;5088432;28;20020;-46
2022/01/16 12:48:21;;;;;;;82.38;38.38;;;4.00;99.90;;;;;;5086222;28;20081;-45
2022/01/16 12:50:47;;;;;;;83.70;37.70;;;4.00;99.90;;;;;;5088972;28;20028;-45
2022/01/16 12:53:12;;;;;;;75.10;35.72;;;4.00;99.90;;;;;;5089628;28;20035;-45
2022/01/16 12:55:38;;;;;;;70.88;34.47;;;4.00;99.90;;;;;;5083674;28;20020;-46
2022/01/16 12:58:22;;;;;;;82.07;37.00;;;4.10;99.90;;;;;;5090328;28;20111;-45
2022/01/16 13:01:01;;;;;;;78.05;36.88;;;4.10;99.90;;;;;;5092294;28;20115;-45
2022/01/16 13:03:28;;;;;;;75.70;35.88;;;4.10;99.90;;;;;;5092050;28;20032;-46
2022/01/16 13:06:23;;;;;;;78.18;37.17;;;4.20;99.90;;;;;;5090341;28;20497;-47
2022/01/16 13:09:02;;;;;;;65.28;32.78;;;4.20;99.90;;;;;;5062129;28;20363;-46
2022/01/16 13:11:37;;;;;;;74.30;35.67;;;4.20;99.90;;;;;;5057925;28;20020;-46
2022/01/16 13:14:08;;;;;;;68.35;35.10;;;4.20;99.90;;;;;;5062407;28;20136;-46
2022/01/16 13:16:36;;;;;;;72.25;35.75;;;4.20;99.90;;;;;;5058401;28;20071;-46
2022/01/16 13:19:03;;;;;;;75.95;36.78;;;4.20;99.90;;;;;;5056201;28;20034;-46
2022/01/16 13:21:43;;;;;;;77.15;37.08;;;4.30;99.90;;;;;;5064271;28;20768;-46
2022/01/16 13:24:09;;;;;;;76.60;35.70;;;4.30;99.90;;;;;;5077151;28;20066;-46
2022/01/16 13:26:34;;;;;;;71.57;35.30;;;4.30;99.90;;;;;;5084154;28;20056;-46